臺北終端管制區 - 桃園南區雷達席

METAR RCTP 212030Z 17004KT 9999 FEW020 27/26 Q1000 NOSIG RMK A2955=

站台狀態:Offline
最後更新:2018-07-22 05:00:03